createdAt,value
2019-04-06T00:02:02.078Z,10.30
2019-04-06T00:04:32.409Z,10.40
2019-04-06T00:07:02.645Z,10.40
2019-04-06T00:09:32.819Z,10.40
2019-04-06T00:12:03.058Z,10.40
2019-04-06T00:14:33.329Z,10.40
2019-04-06T00:17:03.486Z,10.40
2019-04-06T00:19:33.653Z,10.40
2019-04-06T00:22:04.076Z,10.40
2019-04-06T00:24:34.298Z,10.40
2019-04-06T00:27:04.549Z,10.40
2019-04-06T00:29:34.803Z,10.40
2019-04-06T00:32:33.714Z,10.40
2019-04-06T00:35:04.126Z,10.40
2019-04-06T00:37:34.279Z,10.40
2019-04-06T00:40:05.026Z,10.40
2019-04-06T00:42:35.257Z,10.40
2019-04-06T00:45:05.951Z,10.40
2019-04-06T00:47:36.219Z,10.40
2019-04-06T00:50:07.224Z,10.40
2019-04-06T00:52:37.427Z,10.40
2019-04-06T00:55:07.718Z,10.40
2019-04-06T00:57:37.913Z,10.50
2019-04-06T01:00:08.682Z,10.50
2019-04-06T01:02:38.907Z,10.50
2019-04-06T01:05:09.127Z,10.50
2019-04-06T01:07:39.356Z,10.50
2019-04-06T01:10:09.835Z,10.60
2019-04-06T01:12:40.047Z,10.60
2019-04-06T01:15:10.550Z,10.60
2019-04-06T01:17:40.691Z,10.60
2019-04-06T01:20:11.091Z,10.60
2019-04-06T01:22:41.362Z,10.60
2019-04-06T01:25:11.578Z,10.60
2019-04-06T01:27:41.797Z,10.70
2019-04-06T01:30:12.481Z,10.70
2019-04-06T01:32:42.806Z,10.70
2019-04-06T01:35:14.095Z,10.70
2019-04-06T01:37:44.259Z,10.70
2019-04-06T01:40:14.607Z,10.70
2019-04-06T01:42:44.861Z,10.70
2019-04-06T01:45:15.029Z,10.70
2019-04-06T01:47:45.351Z,10.70
2019-04-06T01:50:15.615Z,10.60
2019-04-06T01:52:45.818Z,10.70
2019-04-06T01:55:16.134Z,10.70
2019-04-06T01:57:46.494Z,10.70
2019-04-06T02:00:16.782Z,10.70
2019-04-06T02:02:49.585Z,10.70
2019-04-06T02:05:19.814Z,10.70
2019-04-06T02:07:50.939Z,10.70
2019-04-06T02:10:21.401Z,10.70
2019-04-06T02:12:51.553Z,10.70
2019-04-06T02:15:21.683Z,10.70
2019-04-06T02:17:52.002Z,10.70
2019-04-06T02:20:22.136Z,10.70
2019-04-06T02:22:52.462Z,10.70
2019-04-06T02:25:22.783Z,10.70
2019-04-06T02:27:52.941Z,10.60
2019-04-06T02:30:30.272Z,10.70
2019-04-06T02:33:15.257Z,10.70
2019-04-06T02:36:02.254Z,10.70
2019-04-06T02:39:10.757Z,10.70
2019-04-06T02:41:57.910Z,10.70
2019-04-06T02:44:28.055Z,10.70
2019-04-06T02:46:58.380Z,10.70
2019-04-06T02:49:28.599Z,10.70
2019-04-06T02:51:58.819Z,10.60
2019-04-06T02:54:29.060Z,10.50
2019-04-06T02:56:59.379Z,10.40
2019-04-06T02:59:29.764Z,10.30
2019-04-06T03:02:00.032Z,10.30
2019-04-06T03:04:30.259Z,10.20
2019-04-06T03:07:00.381Z,10.20
2019-04-06T03:09:30.566Z,10.10
2019-04-06T03:12:00.869Z,10.00
2019-04-06T03:14:30.981Z,10.00
2019-04-06T03:17:01.193Z,9.90
2019-04-06T03:19:31.315Z,9.90
2019-04-06T03:22:01.535Z,9.90
2019-04-06T03:24:31.820Z,9.90
2019-04-06T03:27:03.119Z,9.90
2019-04-06T03:29:33.533Z,9.80
2019-04-06T03:32:04.057Z,9.80
2019-04-06T03:34:34.418Z,9.90
2019-04-06T03:37:04.763Z,9.90
2019-04-06T03:39:35.942Z,10.00
2019-04-06T03:42:06.188Z,10.00
2019-04-06T03:44:36.515Z,10.00
2019-04-06T03:47:06.608Z,9.90
2019-04-06T03:49:36.827Z,9.90
2019-04-06T03:52:06.971Z,9.80
2019-04-06T03:54:37.442Z,9.80
2019-04-06T03:57:14.443Z,9.80
2019-04-06T03:59:39.660Z,9.80
2019-04-06T04:02:09.972Z,9.80
2019-04-06T04:04:40.169Z,9.70
2019-04-06T04:07:10.304Z,9.70
2019-04-06T04:09:40.566Z,9.70
2019-04-06T04:12:10.862Z,9.80
2019-04-06T04:14:41.155Z,9.70
2019-04-06T04:17:11.321Z,9.70
2019-04-06T04:19:41.429Z,9.70
2019-04-06T04:22:11.817Z,9.70
2019-04-06T04:24:41.973Z,9.70
2019-04-06T04:27:12.136Z,9.70
2019-04-06T04:29:42.460Z,9.70
2019-04-06T04:32:12.685Z,9.70
2019-04-06T04:34:42.963Z,9.60
2019-04-06T04:37:13.089Z,9.50
2019-04-06T04:39:43.661Z,9.50
2019-04-06T04:42:14.926Z,9.60
2019-04-06T04:44:45.090Z,9.60
2019-04-06T04:47:15.345Z,9.60
2019-04-06T04:49:45.692Z,9.60
2019-04-06T04:52:16.497Z,9.60
2019-04-06T04:54:46.956Z,9.60
2019-04-06T04:57:17.405Z,9.70
2019-04-06T04:59:47.724Z,9.70
2019-04-06T05:02:18.286Z,9.80
2019-04-06T05:04:48.608Z,9.80
2019-04-06T05:07:18.932Z,9.80
2019-04-06T05:09:49.114Z,9.90
2019-04-06T05:12:20.298Z,9.90
2019-04-06T05:15:00.043Z,9.90
2019-04-06T05:17:30.340Z,9.90
2019-04-06T05:20:01.295Z,10.00
2019-04-06T05:22:31.674Z,10.00
2019-04-06T05:25:04.644Z,10.10
2019-04-06T05:27:34.990Z,10.10
2019-04-06T05:30:06.205Z,10.10
2019-04-06T05:32:36.697Z,10.10
2019-04-06T05:35:07.320Z,10.10
2019-04-06T05:37:38.067Z,10.10
2019-04-06T05:40:08.556Z,10.10
2019-04-06T05:42:39.818Z,10.10
2019-04-06T05:45:11.087Z,10.10
2019-04-06T05:47:42.007Z,10.10
2019-04-06T05:50:12.318Z,10.10
2019-04-06T05:52:42.575Z,10.10
2019-04-06T05:55:12.938Z,10.20
2019-04-06T05:57:43.149Z,10.20
2019-04-06T06:00:16.154Z,10.30
2019-04-06T06:02:49.626Z,10.50
2019-04-06T06:05:22.050Z,10.60
2019-04-06T06:07:54.379Z,10.60
2019-04-06T06:10:26.934Z,10.70
2019-04-06T06:12:58.137Z,10.70
2019-04-06T06:15:28.350Z,10.70
2019-04-06T06:18:01.272Z,10.70
2019-04-06T06:20:31.623Z,10.80
2019-04-06T06:23:01.702Z,10.90
2019-04-06T06:25:31.935Z,10.90
2019-04-06T06:28:13.508Z,11.00
2019-04-06T06:30:34.146Z,11.20
2019-04-06T06:33:04.690Z,11.30
2019-04-06T06:35:34.858Z,11.40
2019-04-06T06:38:05.132Z,11.50
2019-04-06T06:40:35.397Z,11.60
2019-04-06T06:43:05.848Z,11.80
2019-04-06T06:45:37.014Z,12.00
2019-04-06T06:48:07.339Z,12.10
2019-04-06T06:50:37.599Z,12.20
2019-04-06T06:53:07.964Z,12.30
2019-04-06T06:55:38.378Z,12.40
2019-04-06T06:58:08.591Z,12.60
2019-04-06T07:00:38.830Z,12.70
2019-04-06T07:03:09.250Z,12.90
2019-04-06T07:05:39.524Z,13.00
2019-04-06T07:08:09.733Z,13.10
2019-04-06T07:10:39.950Z,13.20
2019-04-06T07:13:10.694Z,13.20
2019-04-06T07:15:43.218Z,13.40
2019-04-06T07:18:14.128Z,13.50
2019-04-06T07:20:44.271Z,13.70
2019-04-06T07:23:14.549Z,13.90
2019-04-06T07:25:56.380Z,13.90
2019-04-06T07:28:16.867Z,13.90
2019-04-06T07:30:47.106Z,13.80
2019-04-06T07:33:17.569Z,13.70
2019-04-06T07:35:47.789Z,13.50
2019-04-06T07:38:18.011Z,13.50
2019-04-06T07:40:48.521Z,13.60
2019-04-06T07:43:18.736Z,13.70
2019-04-06T07:45:49.882Z,13.70
2019-04-06T07:48:20.122Z,13.60
2019-04-06T07:50:50.388Z,13.60
2019-04-06T07:53:20.517Z,13.50
2019-04-06T07:55:50.807Z,13.60
2019-04-06T07:58:20.953Z,13.70
2019-04-06T08:00:51.361Z,13.80
2019-04-06T08:03:22.032Z,13.90
2019-04-06T08:05:52.286Z,14.10
2019-04-06T08:08:22.578Z,14.30
2019-04-06T08:10:54.364Z,14.40
2019-04-06T08:13:24.593Z,14.50
2019-04-06T08:15:54.810Z,14.60
2019-04-06T08:18:25.026Z,14.60
2019-04-06T08:20:55.250Z,14.70
2019-04-06T08:23:25.493Z,14.70
2019-04-06T08:25:55.706Z,14.80
2019-04-06T08:28:25.867Z,15.00
2019-04-06T08:30:56.136Z,15.10
2019-04-06T08:33:26.456Z,15.30
2019-04-06T08:35:56.642Z,15.40
2019-04-06T08:38:26.917Z,15.50
2019-04-06T08:40:57.194Z,15.70
2019-04-06T08:43:27.718Z,15.80
2019-04-06T08:45:58.058Z,15.90
2019-04-06T08:48:29.277Z,16.10
2019-04-06T08:50:59.541Z,16.20
2019-04-06T08:53:29.741Z,16.10
2019-04-06T08:56:08.922Z,16.20
2019-04-06T08:58:47.995Z,16.30
2019-04-06T09:01:18.146Z,16.60
2019-04-06T09:03:49.736Z,16.80
2019-04-06T09:06:21.285Z,16.90
2019-04-06T09:08:52.016Z,16.80
2019-04-06T09:11:22.182Z,16.50
2019-04-06T09:13:54.988Z,16.30
2019-04-06T09:16:25.234Z,16.30
2019-04-06T09:18:55.498Z,16.40
2019-04-06T09:21:25.677Z,16.50
2019-04-06T09:23:58.224Z,16.50
2019-04-06T09:26:27.642Z,16.60
2019-04-06T09:28:59.545Z,16.50
2019-04-06T09:31:29.788Z,16.50
2019-04-06T09:34:00.028Z,16.70
2019-04-06T09:36:30.198Z,16.90
2019-04-06T09:39:00.547Z,17.20
2019-04-06T09:41:30.965Z,17.10
2019-04-06T09:44:01.369Z,16.90
2019-04-06T09:46:36.722Z,17.00
2019-04-06T09:49:31.638Z,17.10
2019-04-06T09:52:40.669Z,17.10
2019-04-06T09:55:29.834Z,17.20
2019-04-06T09:58:18.746Z,17.20
2019-04-06T10:01:13.804Z,17.30
2019-04-06T10:04:21.290Z,17.30
2019-04-06T10:07:03.039Z,17.10
2019-04-06T10:09:55.225Z,17.10
2019-04-06T10:12:43.104Z,17.00
2019-04-06T10:15:48.223Z,16.70
2019-04-06T10:18:50.157Z,16.40
2019-04-06T10:21:34.407Z,16.10
2019-04-06T10:24:29.670Z,16.00
2019-04-06T10:27:18.883Z,15.90
2019-04-06T10:30:06.512Z,15.80
2019-04-06T10:32:54.344Z,15.70
2019-04-06T10:35:50.459Z,15.70
2019-04-06T10:38:38.557Z,15.80
2019-04-06T10:41:37.329Z,16.00
2019-04-06T10:44:45.109Z,16.20
2019-04-06T10:47:25.149Z,16.30
2019-04-06T10:50:14.426Z,16.60
2019-04-06T10:53:01.234Z,16.90
2019-04-06T10:55:46.498Z,17.20
2019-04-06T10:58:34.549Z,17.60
2019-04-06T11:01:26.583Z,18.10
2019-04-06T11:04:02.268Z,18.60
2019-04-06T11:06:50.368Z,18.90
2019-04-06T11:09:38.613Z,19.20
2019-04-06T11:12:34.640Z,19.40
2019-04-06T11:15:22.740Z,19.60
2019-04-06T11:18:16.963Z,19.60
2019-04-06T11:21:09.202Z,19.60
2019-04-06T11:23:49.667Z,19.50
2019-04-06T11:26:29.304Z,19.20
2019-04-06T11:29:06.386Z,18.90
2019-04-06T11:31:54.625Z,19.10
2019-04-06T11:34:42.567Z,19.00
2019-04-06T11:37:50.163Z,18.70
2019-04-06T11:40:34.213Z,18.50
2019-04-06T11:43:32.121Z,18.50
2019-04-06T11:46:24.008Z,18.40
2019-04-06T11:49:10.614Z,18.30
2019-04-06T11:51:54.147Z,18.90
2019-04-06T11:54:53.418Z,19.20
2019-04-06T11:57:45.482Z,18.90
2019-04-06T12:00:33.751Z,18.90
2019-04-06T12:03:11.525Z,19.20
2019-04-06T12:05:57.645Z,19.60
2019-04-06T12:08:43.485Z,19.90
2019-04-06T12:11:35.440Z,19.70
2019-04-06T12:14:39.757Z,19.60
2019-04-06T12:17:29.027Z,19.30
2019-04-06T12:20:21.159Z,19.50
2019-04-06T12:23:19.865Z,20.70
2019-04-06T12:26:15.750Z,21.30
2019-04-06T12:29:19.990Z,21.10
2019-04-06T12:32:09.053Z,21.70
2019-04-06T12:34:48.423Z,21.70
2019-04-06T12:37:33.251Z,22.10
2019-04-06T12:40:13.201Z,22.20
2019-04-06T12:43:14.556Z,21.50
2019-04-06T12:46:19.100Z,21.60
2019-04-06T12:48:56.161Z,22.00
2019-04-06T12:51:45.325Z,21.80
2019-04-06T12:54:33.157Z,21.70
2019-04-06T12:57:22.323Z,21.30
2019-04-06T12:59:57.751Z,20.80
2019-04-06T13:02:53.012Z,20.50
2019-04-06T13:05:43.363Z,20.70
2019-04-06T13:08:32.123Z,21.90
2019-04-06T13:11:21.303Z,22.30
2019-04-06T13:14:03.987Z,21.50
2019-04-06T13:16:39.430Z,21.00
2019-04-06T13:19:31.919Z,21.10
2019-04-06T13:22:21.414Z,20.90
2019-04-06T13:25:14.009Z,21.00
2019-04-06T13:28:02.147Z,21.10
2019-04-06T13:31:01.437Z,20.70
2019-04-06T13:33:39.764Z,20.30
2019-04-06T13:36:26.325Z,20.10
2019-04-06T13:39:15.738Z,20.10
2019-04-06T13:42:17.197Z,20.10
2019-04-06T13:44:56.102Z,19.90
2019-04-06T13:47:51.323Z,19.90
2019-04-06T13:50:36.135Z,19.90
2019-04-06T13:53:28.129Z,20.30
2019-04-06T13:56:16.349Z,20.30
2019-04-06T13:59:07.499Z,20.60
2019-04-06T14:01:44.353Z,21.10
2019-04-06T14:04:42.526Z,21.20
2019-04-06T14:07:41.238Z,21.00
2019-04-06T14:10:39.977Z,20.70
2019-04-06T14:13:32.455Z,20.50
2019-04-06T14:16:16.596Z,20.00
2019-04-06T14:19:11.603Z,19.70
2019-04-06T14:21:51.782Z,19.20
2019-04-06T14:24:39.897Z,18.70
2019-04-06T14:27:32.612Z,18.40
2019-04-06T14:30:24.470Z,18.30
2019-04-06T14:33:28.893Z,18.40
2019-04-06T14:36:05.861Z,18.20
2019-04-06T14:38:58.462Z,18.00
2019-04-06T14:41:46.668Z,18.00
2019-04-06T14:44:38.898Z,18.30
2019-04-06T14:47:26.526Z,18.40
2019-04-06T14:50:33.714Z,18.70
2019-04-06T14:53:22.984Z,19.60
2019-04-06T14:56:17.779Z,20.00
2019-04-06T14:59:10.223Z,20.10
2019-04-06T15:02:12.390Z,20.20
2019-04-06T15:05:00.328Z,20.70
2019-04-06T15:07:46.305Z,20.90
2019-04-06T15:10:53.909Z,20.50
2019-04-06T15:13:34.883Z,20.50
2019-04-06T15:16:14.451Z,21.00
2019-04-06T15:18:57.668Z,20.70
2019-04-06T15:21:53.067Z,20.30
2019-04-06T15:24:51.040Z,19.90
2019-04-06T15:27:32.707Z,19.70
2019-04-06T15:30:20.459Z,19.00
2019-04-06T15:33:12.389Z,18.40
2019-04-06T15:36:06.991Z,18.00
2019-04-06T15:38:56.426Z,17.60
2019-04-06T15:41:55.785Z,17.40
2019-04-06T15:44:42.488Z,17.00
2019-04-06T15:47:47.093Z,16.90
2019-04-06T15:50:31.137Z,16.90
2019-04-06T15:53:32.386Z,17.00
2019-04-06T15:56:13.462Z,16.90
2019-04-06T15:59:07.911Z,16.90
2019-04-06T16:02:02.590Z,16.90
2019-04-06T16:04:50.791Z,16.80
2019-04-06T16:07:38.930Z,16.60
2019-04-06T16:10:27.231Z,16.40
2019-04-06T16:13:23.607Z,16.30
2019-04-06T16:16:09.267Z,16.10
2019-04-06T16:18:56.217Z,16.00
2019-04-06T16:21:45.473Z,15.80
2019-04-06T16:24:26.476Z,15.80
2019-04-06T16:27:02.385Z,15.70
2019-04-06T16:29:55.046Z,15.70
2019-04-06T16:32:45.062Z,15.60
2019-04-06T16:35:50.086Z,15.60
2019-04-06T16:38:51.464Z,15.40
2019-04-06T16:41:38.437Z,15.40
2019-04-06T16:44:36.510Z,15.30
2019-04-06T16:47:40.943Z,15.20
2019-04-06T16:50:40.909Z,15.10
2019-04-06T16:53:30.014Z,15.00
2019-04-06T16:56:15.065Z,14.90
2019-04-06T16:58:52.576Z,14.90
2019-04-06T17:01:36.802Z,14.90
2019-04-06T17:04:15.955Z,14.80
2019-04-06T17:07:21.435Z,14.80
2019-04-06T17:10:05.653Z,14.80
2019-04-06T17:12:42.108Z,14.70
2019-04-06T17:15:34.460Z,14.70
2019-04-06T17:18:22.294Z,14.60
2019-04-06T17:21:15.965Z,14.50
2019-04-06T17:24:07.999Z,14.40
2019-04-06T17:27:09.312Z,14.30
2019-04-06T17:30:11.096Z,14.30
2019-04-06T17:32:51.494Z,14.20
2019-04-06T17:35:33.436Z,14.10
2019-04-06T17:38:21.401Z,14.00
2019-04-06T17:41:00.930Z,13.90
2019-04-06T17:43:52.769Z,13.90
2019-04-06T17:46:42.385Z,13.80
2019-04-06T17:49:30.178Z,13.70
2019-04-06T17:52:34.894Z,13.70
2019-04-06T17:55:23.048Z,13.60
2019-04-06T17:58:12.317Z,13.60
2019-04-06T18:01:16.534Z,13.50
2019-04-06T18:04:08.567Z,13.50
2019-04-06T18:07:10.021Z,13.40
2019-04-06T18:09:46.075Z,13.40
2019-04-06T18:12:35.346Z,13.30
2019-04-06T18:15:06.248Z,13.30
2019-04-06T18:17:36.453Z,13.30
2019-04-06T18:20:07.308Z,13.30
2019-04-06T18:22:37.885Z,13.20
2019-04-06T18:25:08.222Z,13.20
2019-04-06T18:27:38.439Z,13.20
2019-04-06T18:30:09.155Z,13.20
2019-04-06T18:32:58.074Z,13.20
2019-04-06T18:35:19.183Z,13.20
2019-04-06T18:38:06.918Z,13.20
2019-04-06T18:40:37.337Z,13.10
2019-04-06T18:43:07.527Z,13.10
2019-04-06T18:45:37.803Z,13.10
2019-04-06T18:48:08.109Z,13.10
2019-04-06T18:50:39.129Z,13.10
2019-04-06T18:53:09.531Z,13.00
2019-04-06T18:55:40.129Z,13.10
2019-04-06T18:58:12.704Z,13.00
2019-04-06T19:00:42.478Z,13.00
2019-04-06T19:03:15.456Z,13.00
2019-04-06T19:05:45.235Z,13.00
2019-04-06T19:08:15.875Z,12.90
2019-04-06T19:10:47.633Z,12.90
2019-04-06T19:13:18.314Z,12.90
2019-04-06T19:15:49.169Z,12.90
2019-04-06T19:18:19.644Z,12.80
2019-04-06T19:20:50.179Z,12.80
2019-04-06T19:23:20.863Z,12.70
2019-04-06T19:25:51.188Z,12.70
2019-04-06T19:28:21.397Z,12.60
2019-04-06T19:30:51.697Z,12.60
2019-04-06T19:33:24.572Z,12.50
2019-04-06T19:35:53.708Z,12.50
2019-04-06T19:38:24.480Z,12.40
2019-04-06T19:40:55.216Z,12.40
2019-04-06T19:43:25.497Z,12.40
2019-04-06T19:45:55.602Z,12.40
2019-04-06T19:48:25.792Z,12.40
2019-04-06T19:50:55.935Z,12.40
2019-04-06T19:53:26.233Z,12.40
2019-04-06T19:55:56.444Z,12.40
2019-04-06T19:58:27.034Z,12.40
2019-04-06T20:00:57.442Z,12.40
2019-04-06T20:03:34.688Z,12.40
2019-04-06T20:05:59.466Z,12.40
2019-04-06T20:08:29.717Z,12.40
2019-04-06T20:10:59.808Z,12.40
2019-04-06T20:13:30.877Z,12.40
2019-04-06T20:16:01.167Z,12.40
2019-04-06T20:18:31.378Z,12.40
2019-04-06T20:21:01.826Z,12.30
2019-04-06T20:23:32.286Z,12.30
2019-04-06T20:26:03.408Z,12.30
2019-04-06T20:28:33.924Z,12.30
2019-04-06T20:31:04.701Z,12.30
2019-04-06T20:33:45.993Z,12.20
2019-04-06T20:36:06.926Z,12.20
2019-04-06T20:38:37.210Z,12.10
2019-04-06T20:41:07.433Z,12.10
2019-04-06T20:43:37.601Z,12.00
2019-04-06T20:46:07.875Z,12.00
2019-04-06T20:48:38.491Z,11.90
2019-04-06T20:51:08.723Z,11.90
2019-04-06T20:53:39.497Z,11.90
2019-04-06T20:56:09.882Z,12.00
2019-04-06T20:58:40.199Z,12.00
2019-04-06T21:01:10.545Z,12.00
2019-04-06T21:03:40.802Z,12.00
2019-04-06T21:06:11.190Z,11.90
2019-04-06T21:08:41.629Z,11.90
2019-04-06T21:11:11.869Z,11.90
2019-04-06T21:13:42.372Z,11.90
2019-04-06T21:16:13.763Z,11.90
2019-04-06T21:18:44.434Z,11.90
2019-04-06T21:21:14.724Z,11.90
2019-04-06T21:23:45.138Z,11.90
2019-04-06T21:26:16.051Z,11.90
2019-04-06T21:28:46.578Z,11.90
2019-04-06T21:31:16.838Z,11.90
2019-04-06T21:33:47.265Z,11.90
2019-04-06T21:36:17.540Z,12.00
2019-04-06T21:38:48.172Z,12.00
2019-04-06T21:41:18.435Z,12.00
2019-04-06T21:43:49.425Z,12.00
2019-04-06T21:46:19.755Z,12.00
2019-04-06T21:48:50.653Z,12.00
2019-04-06T21:51:20.937Z,12.00
2019-04-06T21:53:51.688Z,12.00
2019-04-06T21:56:22.450Z,12.00
2019-04-06T21:58:52.735Z,12.00
2019-04-06T22:01:24.086Z,12.00
2019-04-06T22:03:54.316Z,11.90
2019-04-06T22:06:25.787Z,11.90
2019-04-06T22:08:56.783Z,11.90
2019-04-06T22:11:27.635Z,11.90
2019-04-06T22:13:57.971Z,11.80
2019-04-06T22:16:28.754Z,11.80
2019-04-06T22:19:00.106Z,11.70
2019-04-06T22:21:30.507Z,11.70
2019-04-06T22:24:01.250Z,11.60
2019-04-06T22:26:31.474Z,11.60
2019-04-06T22:29:01.595Z,11.60
2019-04-06T22:31:32.331Z,11.50
2019-04-06T22:34:02.761Z,11.50
2019-04-06T22:36:32.886Z,11.50
2019-04-06T22:39:03.212Z,11.50
2019-04-06T22:41:33.365Z,11.50
2019-04-06T22:44:04.161Z,11.50
2019-04-06T22:46:35.314Z,11.50
2019-04-06T22:49:05.779Z,11.50
2019-04-06T22:51:35.996Z,11.50
2019-04-06T22:54:06.811Z,11.50
2019-04-06T22:56:37.405Z,11.50
2019-04-06T22:59:07.665Z,11.60
2019-04-06T23:01:40.214Z,11.60
2019-04-06T23:04:31.953Z,11.50
2019-04-06T23:07:11.174Z,11.60
2019-04-06T23:09:41.695Z,11.50
2019-04-06T23:12:11.997Z,11.50
2019-04-06T23:14:42.242Z,11.40
2019-04-06T23:17:12.450Z,11.40
2019-04-06T23:19:44.187Z,11.30
2019-04-06T23:22:14.450Z,11.30
2019-04-06T23:24:44.659Z,11.20
2019-04-06T23:27:14.926Z,11.20
2019-04-06T23:29:45.213Z,11.20
2019-04-06T23:32:16.003Z,11.10
2019-04-06T23:34:57.392Z,11.10
2019-04-06T23:37:18.456Z,11.10
2019-04-06T23:39:49.185Z,11.10
2019-04-06T23:42:19.438Z,11.10
2019-04-06T23:44:49.750Z,11.10
2019-04-06T23:47:19.917Z,11.10
2019-04-06T23:49:50.578Z,11.10
2019-04-06T23:52:20.884Z,11.20
2019-04-06T23:54:51.079Z,11.20
2019-04-06T23:57:21.114Z,11.30
2019-04-06T23:59:51.430Z,11.30
